createdAt,value
2023-05-03T00:00:47.562Z,102585.81
2023-05-03T00:03:14.329Z,102597.13
2023-05-03T00:05:41.244Z,102598.91
2023-05-03T00:08:07.869Z,102532.69
2023-05-03T00:10:34.332Z,102596.44
2023-05-03T00:13:00.769Z,102580.94
2023-05-03T00:15:27.289Z,102594.75
2023-05-03T00:17:53.907Z,102594.75
2023-05-03T00:20:20.689Z,102590.53
2023-05-03T00:22:47.276Z,102591.44
2023-05-03T00:25:14.875Z,102586.28
2023-05-03T00:27:41.299Z,102587.19
2023-05-03T00:30:09.597Z,102558.97
2023-05-03T00:32:36.626Z,102597.75
2023-05-03T00:35:03.432Z,102598.66
2023-05-03T00:37:30.920Z,102601.41
2023-05-03T00:39:57.320Z,102607.66
2023-05-03T00:42:24.096Z,102588.66
2023-05-03T00:44:50.484Z,102593.94
2023-05-03T00:47:17.686Z,102576.72
2023-05-03T00:49:45.167Z,102595.72
2023-05-03T00:52:11.636Z,102573.25
2023-05-03T00:54:38.181Z,102605.41
2023-05-03T00:57:05.081Z,102588.91
2023-05-03T00:59:32.639Z,102586.22
2023-05-03T01:01:59.333Z,102594.19
2023-05-03T01:04:26.119Z,102552.84
2023-05-03T01:07:04.660Z,102592.56
2023-05-03T01:09:52.240Z,102595.31
2023-05-03T01:12:33.960Z,102598.84
2023-05-03T01:15:24.318Z,102598.03
2023-05-03T01:18:04.132Z,102604.09
2023-05-03T01:20:33.598Z,102569.03
2023-05-03T01:22:59.997Z,102599.09
2023-05-03T01:25:29.530Z,102604.38
2023-05-03T01:27:55.935Z,102595.19
2023-05-03T01:30:27.494Z,102591.53
2023-05-03T01:33:10.300Z,102614.66
2023-05-03T01:36:00.943Z,102611.81
2023-05-03T01:38:33.182Z,102614.25
2023-05-03T01:41:04.061Z,102580.53
2023-05-03T01:43:33.782Z,102610.25
2023-05-03T01:46:00.357Z,102603.91
2023-05-03T01:48:26.830Z,102614.16
2023-05-03T01:50:53.300Z,102580.34
2023-05-03T01:53:20.116Z,102604.16
2023-05-03T01:55:46.596Z,102612.47
2023-05-03T01:58:13.016Z,102588.03
2023-05-03T02:00:39.482Z,102616.09
2023-05-03T02:03:06.118Z,102618.38
2023-05-03T02:05:32.567Z,102609.25
2023-05-03T02:07:59.007Z,102620.28
2023-05-03T02:10:25.501Z,102615.50
2023-05-03T02:12:51.971Z,102614.44
2023-05-03T02:15:20.094Z,102577.88
2023-05-03T02:17:49.600Z,102621.66
2023-05-03T02:20:16.490Z,102628.50
2023-05-03T02:22:43.077Z,102636.16
2023-05-03T02:25:09.604Z,102649.22
2023-05-03T02:27:36.150Z,102621.03
2023-05-03T02:30:02.890Z,102629.75
2023-05-03T02:32:29.450Z,102633.78
2023-05-03T02:34:56.065Z,102603.47
2023-05-03T02:37:22.518Z,102639.50
2023-05-03T02:39:48.987Z,102625.59
2023-05-03T02:42:16.134Z,102630.69
2023-05-03T02:44:42.596Z,102639.78
2023-05-03T02:47:09.464Z,102631.25
2023-05-03T02:49:35.959Z,102636.00
2023-05-03T02:52:02.444Z,102638.31
2023-05-03T02:54:28.927Z,102628.56
2023-05-03T02:56:55.601Z,102637.00
2023-05-03T02:59:21.987Z,102631.47
2023-05-03T03:01:49.298Z,102636.66
2023-05-03T03:04:15.810Z,102646.16
2023-05-03T03:06:42.264Z,102647.75
2023-05-03T03:09:08.686Z,102628.47
2023-05-03T03:11:35.261Z,102618.63
2023-05-03T03:14:01.704Z,102631.25
2023-05-03T03:16:28.474Z,102632.91
2023-05-03T03:18:55.128Z,102615.78
2023-05-03T03:21:21.662Z,102634.38
2023-05-03T03:23:48.256Z,102638.63
2023-05-03T03:26:14.707Z,102579.09
2023-05-03T03:28:41.301Z,102603.94
2023-05-03T03:31:07.916Z,102634.69
2023-05-03T03:33:34.393Z,102618.28
2023-05-03T03:36:00.980Z,102639.84
2023-05-03T03:38:27.424Z,102627.38
2023-05-03T03:40:54.410Z,102632.34
2023-05-03T03:43:20.864Z,102635.56
2023-05-03T03:45:47.276Z,102610.41
2023-05-03T03:48:13.930Z,102609.50
2023-05-03T03:50:40.497Z,102611.22
2023-05-03T03:53:07.078Z,102611.75
2023-05-03T03:55:33.508Z,102635.06
2023-05-03T03:58:00.084Z,102631.53
2023-05-03T04:00:26.672Z,102625.47
2023-05-03T04:02:53.231Z,102628.88
2023-05-03T04:05:19.847Z,102620.25
2023-05-03T04:07:46.300Z,102607.38
2023-05-03T04:10:12.737Z,102629.53
2023-05-03T04:12:39.256Z,102638.16
2023-05-03T04:15:06.541Z,102635.25
2023-05-03T04:17:34.937Z,102595.66
2023-05-03T04:20:07.351Z,102588.34
2023-05-03T04:22:34.104Z,102632.66
2023-05-03T04:25:03.578Z,102628.06
2023-05-03T04:27:30.122Z,102630.38
2023-05-03T04:29:57.140Z,102597.38
2023-05-03T04:32:23.599Z,102624.72
2023-05-03T04:34:54.465Z,102636.47
2023-05-03T04:37:23.513Z,102635.59
2023-05-03T04:39:49.978Z,102622.66
2023-05-03T04:42:16.609Z,102651.56
2023-05-03T04:44:43.050Z,102654.56
2023-05-03T04:47:09.577Z,102620.63
2023-05-03T04:49:36.212Z,102649.63
2023-05-03T04:52:03.055Z,102660.03
2023-05-03T04:54:29.545Z,102642.72
2023-05-03T04:56:56.722Z,102662.75
2023-05-03T04:59:23.189Z,102632.59
2023-05-03T05:01:49.737Z,102645.31
2023-05-03T05:04:16.787Z,102678.06
2023-05-03T05:06:43.376Z,102671.03
2023-05-03T05:09:23.219Z,102687.91
2023-05-03T05:11:49.914Z,102675.38
2023-05-03T05:14:16.491Z,102646.44
2023-05-03T05:16:43.006Z,102647.66
2023-05-03T05:19:09.537Z,102651.50
2023-05-03T05:21:36.152Z,102681.00
2023-05-03T05:24:02.640Z,102686.34
2023-05-03T05:26:29.286Z,102637.91
2023-05-03T05:28:56.050Z,102685.75
2023-05-03T05:31:22.558Z,102693.03
2023-05-03T05:33:49.026Z,102682.63
2023-05-03T05:36:15.644Z,102696.91
2023-05-03T05:38:42.240Z,102711.31
2023-05-03T05:41:08.728Z,102674.00
2023-05-03T05:43:35.251Z,102688.72
2023-05-03T05:46:01.759Z,102699.34
2023-05-03T05:48:28.232Z,102674.00
2023-05-03T05:50:54.609Z,102705.88
2023-05-03T05:53:20.989Z,102687.13
2023-05-03T05:55:47.463Z,102715.16
2023-05-03T05:58:13.941Z,102702.88
2023-05-03T06:00:40.998Z,102696.31
2023-05-03T06:03:07.552Z,102706.69
2023-05-03T06:05:34.098Z,102689.53
2023-05-03T06:08:00.578Z,102708.66
2023-05-03T06:10:27.015Z,102684.63
2023-05-03T06:12:53.454Z,102714.16
2023-05-03T06:15:19.915Z,102712.59
2023-05-03T06:17:46.867Z,102719.59
2023-05-03T06:20:13.764Z,102688.47
2023-05-03T06:22:40.388Z,102681.88
2023-05-03T06:25:10.544Z,102715.44
2023-05-03T06:27:38.363Z,102716.34
2023-05-03T06:30:06.627Z,102721.59
2023-05-03T06:32:33.199Z,102714.75
2023-05-03T06:34:59.749Z,102722.56
2023-05-03T06:37:26.488Z,102728.47
2023-05-03T06:39:53.052Z,102726.19
2023-05-03T06:42:19.573Z,102732.75
2023-05-03T06:44:46.148Z,102722.34
2023-05-03T06:47:12.571Z,102681.34
2023-05-03T06:49:39.055Z,102726.28
2023-05-03T06:52:05.688Z,102708.72
2023-05-03T06:54:32.122Z,102732.16
2023-05-03T06:56:58.750Z,102689.00
2023-05-03T06:59:26.857Z,102718.53
2023-05-03T07:01:53.548Z,102704.16
2023-05-03T07:04:20.189Z,102699.69
2023-05-03T07:06:56.107Z,102714.69
2023-05-03T07:09:32.056Z,102732.53
2023-05-03T07:12:08.456Z,102714.88
2023-05-03T07:14:34.931Z,102740.56
2023-05-03T07:17:01.314Z,102741.66
2023-05-03T07:19:27.727Z,102702.81
2023-05-03T07:21:54.168Z,102742.13
2023-05-03T07:24:20.695Z,102666.66
2023-05-03T07:26:48.545Z,102739.56
2023-05-03T07:29:15.658Z,102724.88
2023-05-03T07:31:42.245Z,102741.41
2023-05-03T07:34:09.094Z,102711.00
2023-05-03T07:36:35.591Z,102680.59
2023-05-03T07:39:04.760Z,102717.28
2023-05-03T07:41:31.756Z,102742.97
2023-05-03T07:43:58.524Z,102738.38
2023-05-03T07:46:25.128Z,102730.84
2023-05-03T07:48:51.677Z,102728.34
2023-05-03T07:51:18.141Z,102728.00
2023-05-03T07:53:44.578Z,102737.38
2023-05-03T07:56:11.284Z,102733.69
2023-05-03T07:58:40.517Z,102733.75
2023-05-03T08:01:07.748Z,102721.72
2023-05-03T08:03:34.449Z,102718.34
2023-05-03T08:06:01.613Z,102687.69
2023-05-03T08:08:28.496Z,102732.53
2023-05-03T08:10:54.972Z,102709.44
2023-05-03T08:13:22.693Z,102741.03
2023-05-03T08:15:50.743Z,102732.97
2023-05-03T08:18:17.301Z,102736.00
2023-05-03T08:20:45.201Z,102729.25
2023-05-03T08:23:11.676Z,102703.34
2023-05-03T08:25:38.086Z,102708.59
2023-05-03T08:28:04.778Z,102706.97
2023-05-03T08:30:31.513Z,102739.72
2023-05-03T08:32:57.985Z,102737.28
2023-05-03T08:35:25.323Z,102745.31
2023-05-03T08:37:51.754Z,102724.47
2023-05-03T08:40:22.235Z,102742.56
2023-05-03T08:42:50.221Z,102747.69
2023-05-03T08:45:17.204Z,102742.97
2023-05-03T08:47:45.487Z,102710.94
2023-05-03T08:50:13.873Z,102748.56
2023-05-03T08:52:42.614Z,102709.88
2023-05-03T08:55:10.540Z,102710.63
2023-05-03T08:57:37.977Z,102744.13
2023-05-03T09:00:12.606Z,102741.22
2023-05-03T09:02:40.163Z,102733.31
2023-05-03T09:05:15.839Z,102747.72
2023-05-03T09:08:01.975Z,102755.53
2023-05-03T09:10:28.473Z,102739.28
2023-05-03T09:13:01.124Z,102735.03
2023-05-03T09:15:30.952Z,102753.56
2023-05-03T09:18:16.117Z,102756.16
2023-05-03T09:20:51.089Z,102759.47
2023-05-03T09:23:20.035Z,102751.41
2023-05-03T09:25:51.512Z,102750.03
2023-05-03T09:28:20.256Z,102743.69
2023-05-03T09:30:48.208Z,102761.16
2023-05-03T09:33:22.375Z,102762.53
2023-05-03T09:36:03.574Z,102753.22
2023-05-03T09:38:36.864Z,102747.69
2023-05-03T09:41:05.960Z,102745.13
2023-05-03T09:43:32.579Z,102756.34
2023-05-03T09:46:13.442Z,102743.59
2023-05-03T09:48:40.987Z,102709.16
2023-05-03T09:51:08.502Z,102743.44
2023-05-03T09:53:37.212Z,102738.00
2023-05-03T09:56:06.281Z,102746.09
2023-05-03T09:58:34.979Z,102743.63
2023-05-03T10:01:02.115Z,102749.97
2023-05-03T10:03:35.134Z,102741.84
2023-05-03T10:06:05.339Z,102747.66
2023-05-03T10:08:37.471Z,102749.88
2023-05-03T10:11:05.408Z,102708.06
2023-05-03T10:13:32.005Z,102749.59
2023-05-03T10:16:12.690Z,102747.69
2023-05-03T10:18:51.195Z,102728.56
2023-05-03T10:21:51.385Z,102728.16
2023-05-03T10:24:17.877Z,102725.59
2023-05-03T10:26:49.835Z,102721.69
2023-05-03T10:29:49.018Z,102735.88
2023-05-03T10:32:31.768Z,102728.75
2023-05-03T10:35:07.434Z,102723.44
2023-05-03T10:37:38.008Z,102719.63
2023-05-03T10:40:10.236Z,102732.63
2023-05-03T10:42:43.968Z,102706.94
2023-05-03T10:45:21.649Z,102726.66
2023-05-03T10:48:13.142Z,102730.66
2023-05-03T10:50:40.642Z,102729.34
2023-05-03T10:53:07.388Z,102698.88
2023-05-03T10:55:34.328Z,102703.03
2023-05-03T10:58:01.917Z,102719.91
2023-05-03T11:00:43.986Z,102714.25
2023-05-03T11:03:25.332Z,102717.97
2023-05-03T11:05:52.262Z,102715.72
2023-05-03T11:08:20.831Z,102707.94
2023-05-03T11:10:56.806Z,102706.78
2023-05-03T11:13:23.362Z,102664.66
2023-05-03T11:15:50.029Z,102706.44
2023-05-03T11:18:16.927Z,102664.28
2023-05-03T11:20:44.092Z,102693.84
2023-05-03T11:23:12.334Z,102710.06
2023-05-03T11:25:39.251Z,102704.16
2023-05-03T11:28:05.944Z,102711.06
2023-05-03T11:30:37.323Z,102716.97
2023-05-03T11:33:04.548Z,102708.59
2023-05-03T11:35:31.896Z,102732.47
2023-05-03T11:37:58.498Z,102721.25
2023-05-03T11:40:26.095Z,102699.22
2023-05-03T11:42:58.639Z,102711.50
2023-05-03T11:45:52.312Z,102667.06
2023-05-03T11:48:18.963Z,102707.44
2023-05-03T11:50:48.328Z,102712.09
2023-05-03T11:53:15.505Z,102708.28
2023-05-03T11:55:48.025Z,102703.78
2023-05-03T11:58:20.394Z,102700.16
2023-05-03T12:00:48.556Z,102698.19
2023-05-03T12:03:24.441Z,102668.69
2023-05-03T12:05:54.644Z,102684.88
2023-05-03T12:08:23.139Z,102688.34
2023-05-03T12:10:53.894Z,102690.34
2023-05-03T12:13:56.970Z,102693.19
2023-05-03T12:16:23.560Z,102691.44
2023-05-03T12:18:56.519Z,102696.63
2023-05-03T12:23:57.200Z,102690.56
2023-05-03T12:26:26.443Z,102683.34
2023-05-03T12:28:56.122Z,102692.22
2023-05-03T12:31:23.465Z,102689.00
2023-05-03T12:34:11.372Z,102682.22
2023-05-03T12:36:38.174Z,102652.91
2023-05-03T12:39:09.443Z,102690.31
2023-05-03T12:44:09.771Z,102632.50
2023-05-03T12:46:38.692Z,102664.09
2023-05-03T12:49:08.311Z,102619.63
2023-05-03T12:51:35.615Z,102668.03
2023-05-03T12:54:03.663Z,102659.63
2023-05-03T12:56:32.585Z,102674.25
2023-05-03T12:59:27.665Z,102660.66
2023-05-03T13:03:08.265Z,102661.72
2023-05-03T13:04:57.026Z,102650.69
2023-05-03T13:07:28.236Z,102648.69
2023-05-03T13:12:26.154Z,102650.78
2023-05-03T13:14:53.887Z,102637.06
2023-05-03T13:17:22.392Z,102651.97
2023-05-03T13:19:50.945Z,102608.06
2023-05-03T13:22:17.840Z,102643.75
2023-05-03T13:24:46.965Z,102644.91
2023-05-03T13:27:14.005Z,102641.53
2023-05-03T13:29:40.866Z,102615.09
2023-05-03T13:32:08.211Z,102626.75
2023-05-03T13:34:35.453Z,102595.84
2023-05-03T13:37:02.524Z,102622.97
2023-05-03T13:39:29.058Z,102622.84
2023-05-03T13:41:55.510Z,102624.84
2023-05-03T13:44:25.423Z,102630.25
2023-05-03T13:46:52.808Z,102623.59
2023-05-03T13:49:19.770Z,102639.94
2023-05-03T13:51:46.249Z,102621.47
2023-05-03T13:54:12.663Z,102626.44
2023-05-03T13:56:40.361Z,102593.09
2023-05-03T13:59:08.887Z,102628.03
2023-05-03T14:01:36.177Z,102618.13
2023-05-03T14:04:03.947Z,102628.88
2023-05-03T14:06:33.367Z,102594.47
2023-05-03T14:09:01.608Z,102610.09
2023-05-03T14:11:30.611Z,102612.38
2023-05-03T14:13:58.446Z,102575.28
2023-05-03T14:18:56.259Z,102593.09
2023-05-03T14:21:22.754Z,102602.78
2023-05-03T14:23:53.345Z,102605.03
2023-05-03T14:26:21.921Z,102598.78
2023-05-03T14:28:48.324Z,102578.31
2023-05-03T14:31:14.910Z,102585.00
2023-05-03T14:33:41.509Z,102591.31
2023-05-03T14:36:09.137Z,102570.75
2023-05-03T14:38:37.125Z,102591.53
2023-05-03T14:41:03.687Z,102579.47
2023-05-03T14:43:30.288Z,102591.53
2023-05-03T14:45:56.696Z,102578.31
2023-05-03T14:48:23.490Z,102585.63
2023-05-03T14:50:50.731Z,102580.34
2023-05-03T14:53:17.474Z,102585.09
2023-05-03T14:55:44.208Z,102590.75
2023-05-03T14:58:10.636Z,102585.75
2023-05-03T15:00:38.957Z,102559.22
2023-05-03T15:03:05.933Z,102585.75
2023-05-03T15:05:32.502Z,102552.25
2023-05-03T15:07:59.986Z,102580.00
2023-05-03T15:10:26.424Z,102578.66
2023-05-03T15:12:53.004Z,102576.66
2023-05-03T15:15:19.420Z,102551.41
2023-05-03T15:17:47.174Z,102581.59
2023-05-03T15:20:15.293Z,102575.81
2023-05-03T15:22:41.766Z,102581.38
2023-05-03T15:25:08.688Z,102575.97
2023-05-03T15:27:35.131Z,102576.66
2023-05-03T15:30:01.849Z,102570.06
2023-05-03T15:32:28.503Z,102574.53
2023-05-03T15:34:55.279Z,102556.16
2023-05-03T15:37:21.668Z,102571.81
2023-05-03T15:39:48.054Z,102567.75
2023-05-03T15:42:14.528Z,102524.13
2023-05-03T15:44:40.982Z,102561.84
2023-05-03T15:47:07.400Z,102564.38
2023-05-03T15:49:33.799Z,102565.84
2023-05-03T15:52:00.230Z,102563.09
2023-05-03T15:54:26.632Z,102523.66
2023-05-03T15:56:53.206Z,102550.97
2023-05-03T15:59:19.688Z,102552.88
2023-05-03T16:01:46.142Z,102559.50
2023-05-03T16:04:12.631Z,102565.84
2023-05-03T16:06:39.547Z,102527.19
2023-05-03T16:09:07.048Z,102532.00
2023-05-03T16:11:33.615Z,102532.19
2023-05-03T16:14:00.013Z,102518.44
2023-05-03T16:16:27.301Z,102552.06
2023-05-03T16:18:53.881Z,102546.19
2023-05-03T16:21:20.328Z,102549.44
2023-05-03T16:23:46.882Z,102552.16
2023-05-03T16:26:17.915Z,102502.66
2023-05-03T16:28:44.450Z,102546.22
2023-05-03T16:31:12.337Z,102544.69
2023-05-03T16:33:38.892Z,102540.41
2023-05-03T16:36:05.435Z,102540.81
2023-05-03T16:38:32.128Z,102536.56
2023-05-03T16:40:59.866Z,102534.94
2023-05-03T16:43:26.632Z,102527.72
2023-05-03T16:46:02.407Z,102451.66
2023-05-03T16:48:31.983Z,102508.56
2023-05-03T16:50:59.815Z,102538.09
2023-05-03T16:53:26.212Z,102534.09
2023-05-03T16:55:53.968Z,102524.28
2023-05-03T16:58:20.802Z,102522.06
2023-05-03T17:00:48.082Z,102512.13
2023-05-03T17:03:14.760Z,102532.00
2023-05-03T17:05:41.254Z,102528.91
2023-05-03T17:08:10.924Z,102531.78
2023-05-03T17:10:39.142Z,102498.59
2023-05-03T17:13:06.341Z,102483.56
2023-05-03T17:15:33.135Z,102527.81
2023-05-03T17:18:01.951Z,102495.31
2023-05-03T17:20:30.180Z,102473.44
2023-05-03T17:22:56.728Z,102525.28
2023-05-03T17:25:23.280Z,102471.59
2023-05-03T17:27:51.721Z,102513.06
2023-05-03T17:30:21.171Z,102519.44
2023-05-03T17:32:48.578Z,102487.19
2023-05-03T17:35:15.133Z,102513.28
2023-05-03T17:37:41.647Z,102503.19
2023-05-03T17:40:08.896Z,102515.41
2023-05-03T17:42:35.764Z,102494.66
2023-05-03T17:45:03.183Z,102513.66
2023-05-03T17:47:29.789Z,102501.03
2023-05-03T17:49:56.502Z,102490.50
2023-05-03T17:52:23.552Z,102490.19
2023-05-03T17:54:53.052Z,102480.75
2023-05-03T17:57:22.493Z,102511.78
2023-05-03T17:59:48.974Z,102507.88
2023-05-03T18:02:15.408Z,102511.59
2023-05-03T18:04:41.873Z,102495.22
2023-05-03T18:07:08.505Z,102462.72
2023-05-03T18:09:34.904Z,102507.41
2023-05-03T18:12:03.476Z,102510.88
2023-05-03T18:14:30.252Z,102495.59
2023-05-03T18:16:57.155Z,102510.56
2023-05-03T18:19:24.035Z,102512.72
2023-05-03T18:21:50.519Z,102496.56
2023-05-03T18:24:17.066Z,102520.88
2023-05-03T18:26:43.622Z,102527.56
2023-05-03T18:29:10.147Z,102512.63
2023-05-03T18:31:36.746Z,102523.84
2023-05-03T18:34:03.234Z,102515.66
2023-05-03T18:36:29.761Z,102517.72
2023-05-03T18:38:56.315Z,102452.28
2023-05-03T18:41:23.051Z,102515.69
2023-05-03T18:43:50.386Z,102527.34
2023-05-03T18:46:18.634Z,102517.25
2023-05-03T18:48:46.157Z,102496.09
2023-05-03T18:51:12.610Z,102517.50
2023-05-03T18:53:39.015Z,102530.38
2023-05-03T18:56:05.760Z,102533.00
2023-05-03T18:58:32.628Z,102528.66
2023-05-03T19:01:00.187Z,102534.56
2023-05-03T19:03:30.269Z,102530.84
2023-05-03T19:06:09.850Z,102535.06
2023-05-03T19:08:36.308Z,102519.75
2023-05-03T19:11:14.117Z,102532.38
2023-05-03T19:13:47.359Z,102539.31
2023-05-03T19:16:15.497Z,102554.63
2023-05-03T19:18:42.063Z,102548.22
2023-05-03T19:21:08.841Z,102544.34
2023-05-03T19:23:35.394Z,102540.16
2023-05-03T19:26:01.843Z,102534.50
2023-05-03T19:28:28.445Z,102558.25
2023-05-03T19:30:55.070Z,102552.66
2023-05-03T19:33:21.747Z,102564.63
2023-05-03T19:35:48.123Z,102553.69
2023-05-03T19:38:14.718Z,102560.22
2023-05-03T19:40:41.333Z,102560.59
2023-05-03T19:43:07.737Z,102561.00
2023-05-03T19:45:34.339Z,102533.06
2023-05-03T19:48:01.403Z,102541.06
2023-05-03T19:50:27.840Z,102555.38
2023-05-03T19:52:54.491Z,102553.84
2023-05-03T19:55:21.069Z,102522.66
2023-05-03T19:57:47.561Z,102558.38
2023-05-03T20:00:15.681Z,102540.69
2023-05-03T20:02:42.198Z,102555.84
2023-05-03T20:05:08.793Z,102549.44
2023-05-03T20:07:35.475Z,102550.88
2023-05-03T20:10:02.262Z,102550.31
2023-05-03T20:12:29.290Z,102556.31
2023-05-03T20:14:55.734Z,102529.28
2023-05-03T20:17:22.209Z,102557.66
2023-05-03T20:19:52.019Z,102514.50
2023-05-03T20:22:18.817Z,102565.63
2023-05-03T20:24:45.185Z,102558.47
2023-05-03T20:27:11.711Z,102555.59
2023-05-03T20:29:38.135Z,102561.22
2023-05-03T20:32:04.777Z,102563.97
2023-05-03T20:34:31.199Z,102572.31
2023-05-03T20:36:57.635Z,102554.47
2023-05-03T20:39:24.095Z,102570.19
2023-05-03T20:41:50.736Z,102561.00
2023-05-03T20:44:17.159Z,102557.94
2023-05-03T20:46:45.313Z,102567.47
2023-05-03T20:49:11.982Z,102562.00
2023-05-03T20:51:38.372Z,102544.16
2023-05-03T20:54:04.833Z,102568.63
2023-05-03T20:56:32.601Z,102561.25
2023-05-03T20:58:59.020Z,102555.50
2023-05-03T21:01:25.663Z,102557.59
2023-05-03T21:03:52.135Z,102556.28
2023-05-03T21:06:18.576Z,102569.84
2023-05-03T21:08:44.979Z,102538.06
2023-05-03T21:11:11.463Z,102553.50
2023-05-03T21:13:38.466Z,102498.00
2023-05-03T21:16:08.124Z,102530.88
2023-05-03T21:18:34.727Z,102551.44
2023-05-03T21:21:01.260Z,102524.47
2023-05-03T21:23:27.730Z,102556.50
2023-05-03T21:25:56.211Z,102564.66
2023-05-03T21:28:23.080Z,102564.09
2023-05-03T21:30:49.506Z,102565.41
2023-05-03T21:33:16.302Z,102552.94
2023-05-03T21:35:42.740Z,102549.56
2023-05-03T21:38:09.596Z,102554.34
2023-05-03T21:40:36.151Z,102538.03
2023-05-03T21:43:04.268Z,102552.09
2023-05-03T21:45:31.076Z,102552.41
2023-05-03T21:47:57.550Z,102491.00
2023-05-03T21:50:24.199Z,102559.16
2023-05-03T21:52:50.615Z,102524.16
2023-05-03T21:55:17.148Z,102557.38
2023-05-03T21:57:43.522Z,102542.06
2023-05-03T22:00:16.721Z,102513.88
2023-05-03T22:02:43.312Z,102555.56
2023-05-03T22:05:10.085Z,102505.81
2023-05-03T22:07:36.523Z,102549.00
2023-05-03T22:10:03.279Z,102555.41
2023-05-03T22:12:29.916Z,102526.19
2023-05-03T22:14:56.499Z,102549.84
2023-05-03T22:17:22.988Z,102518.69
2023-05-03T22:19:49.504Z,102541.16
2023-05-03T22:22:16.076Z,102537.88
2023-05-03T22:24:42.547Z,102533.69
2023-05-03T22:27:08.976Z,102530.53
2023-05-03T22:29:35.453Z,102526.22
2023-05-03T22:32:02.841Z,102533.50
2023-05-03T22:34:29.485Z,102507.06
2023-05-03T22:36:56.038Z,102513.78
2023-05-03T22:39:22.537Z,102480.78
2023-05-03T22:41:48.992Z,102521.13
2023-05-03T22:44:15.496Z,102505.16
2023-05-03T22:46:41.888Z,102516.47
2023-05-03T22:49:08.526Z,102470.16
2023-05-03T22:51:34.923Z,102515.09
2023-05-03T22:54:01.346Z,102498.84
2023-05-03T22:56:27.765Z,102503.50
2023-05-03T22:58:54.222Z,102513.03
2023-05-03T23:01:20.711Z,102480.56
2023-05-03T23:03:47.293Z,102511.59
2023-05-03T23:06:14.533Z,102495.50
2023-05-03T23:08:41.200Z,102508.47
2023-05-03T23:11:08.141Z,102513.84
2023-05-03T23:13:34.764Z,102500.13
2023-05-03T23:16:01.755Z,102508.84
2023-05-03T23:18:28.486Z,102504.56
2023-05-03T23:20:55.313Z,102523.28
2023-05-03T23:23:21.825Z,102507.47
2023-05-03T23:25:48.210Z,102505.97
2023-05-03T23:28:14.740Z,102486.41
2023-05-03T23:30:43.689Z,102500.88
2023-05-03T23:33:10.862Z,102494.78
2023-05-03T23:35:38.315Z,102503.72
2023-05-03T23:38:05.196Z,102480.66
2023-05-03T23:40:31.791Z,102500.41
2023-05-03T23:42:58.214Z,102488.34
2023-05-03T23:45:24.726Z,102493.69
2023-05-03T23:47:51.257Z,102495.47
2023-05-03T23:50:17.788Z,102501.88
2023-05-03T23:52:44.232Z,102491.47
2023-05-03T23:55:11.113Z,102481.31
2023-05-03T23:57:38.005Z,102482.19
